PASN/SNP METAR and TAF weather

Enter ICAO airport designator
Station Type Date Time Source
PASN METAR 2022/01/23 11:53 UTC NOAA

PASN 231153Z AUTO 06006KT 10SM OVC038 M03/M08 A2952 RMK AO2 SLP997 T10281083 11017 21039 58006 TSNO $


Station Type Date Time Source
PASN Decoded METAR 2022/01/23 11:53 UTC NOAA

ST PAUL ISLAND AIRPORT, AK, United States (PASN) 57-10N 170-13W 9M
Jan 23, 2022 - 06:53 AM EST / 2022.01.23 1153 UTC
Wind: from the ENE (060 degrees) at 7 MPH (6 KT):0
Visibility: 10 mile(s):0
Sky conditions: overcast
Temperature: 27.0 F (-2.8 C)
Windchill: 19 F (-7 C):1
Dew Point: 17.1 F (-8.3 C)
Relative Humidity: 65%
Pressure (altimeter): 29.52 in. Hg (999 hPa)
Pressure tendency: 0.02 inches (0.6 hPa) lower than three hours ago
ob: PASN 231153Z AUTO 06006KT 10SM OVC038 M03/M08 A2952 RMK AO2 SLP997 T10281083 11017 21039 58006 TSNO
cycle: 12

Station Type Date Time Source
PASN TAF 2022/01/23 12:42 UTC NOAA

TAF PASN 231141Z 2312/2412 06006KT P6SM OVC040
FM231500 05015G24KT P6SM VCSH OVC050
FM232100 03018G26KT 6SM -SN OVC040
FM240000 36020G28KT 4SM -SN BR OVC035
FM240900 33018G26KT P6SM VCSH OVC040

Example: see airport list